createdAt,value
2022-12-31T00:01:26.772Z,8.00
2022-12-31T00:03:54.470Z,8.00
2022-12-31T00:06:24.521Z,8.00
2022-12-31T00:08:53.076Z,8.00
2022-12-31T00:11:21.116Z,7.90
2022-12-31T00:13:48.665Z,7.90
2022-12-31T00:16:27.215Z,7.90
2022-12-31T00:18:59.270Z,8.00
2022-12-31T00:21:30.741Z,8.10
2022-12-31T00:23:58.272Z,8.10
2022-12-31T00:26:28.126Z,8.10
2022-12-31T00:28:56.525Z,8.20
2022-12-31T00:31:31.960Z,8.30
2022-12-31T00:33:59.599Z,8.40
2022-12-31T00:36:38.823Z,8.40
2022-12-31T00:39:08.428Z,8.40
2022-12-31T00:41:35.690Z,8.50
2022-12-31T00:44:03.053Z,8.50
2022-12-31T00:46:30.722Z,8.50
2022-12-31T00:48:57.764Z,8.50
2022-12-31T00:51:27.748Z,8.50
2022-12-31T00:53:56.144Z,8.50
2022-12-31T00:56:25.215Z,8.50
2022-12-31T00:58:52.834Z,8.50
2022-12-31T01:01:27.263Z,8.50
2022-12-31T01:03:58.902Z,8.50
2022-12-31T01:06:26.370Z,8.50
2022-12-31T01:08:55.311Z,8.50
2022-12-31T01:11:23.244Z,8.50
2022-12-31T01:13:53.394Z,8.50
2022-12-31T01:16:23.436Z,8.50
2022-12-31T01:18:51.644Z,8.50
2022-12-31T01:21:19.969Z,8.40
2022-12-31T01:23:47.135Z,8.40
2022-12-31T01:26:16.071Z,8.50
2022-12-31T01:28:43.105Z,8.50
2022-12-31T01:31:12.969Z,8.60
2022-12-31T01:33:40.155Z,8.60
2022-12-31T01:36:28.851Z,8.60
2022-12-31T01:38:57.409Z,8.70
2022-12-31T01:41:35.282Z,8.70
2022-12-31T01:44:11.487Z,8.80
2022-12-31T01:46:46.200Z,8.90
2022-12-31T01:49:16.420Z,8.90
2022-12-31T01:51:49.220Z,8.90
2022-12-31T01:54:18.951Z,9.00
2022-12-31T01:56:48.083Z,9.00
2022-12-31T01:59:18.003Z,9.00
2022-12-31T02:01:46.772Z,9.10
2022-12-31T02:04:14.877Z,9.10
2022-12-31T02:06:59.946Z,9.10
2022-12-31T02:09:27.077Z,9.10
2022-12-31T02:11:54.191Z,9.20
2022-12-31T02:14:34.077Z,9.20
2022-12-31T02:17:03.789Z,9.20
2022-12-31T02:20:24.534Z,9.20
2022-12-31T02:23:42.148Z,9.20
2022-12-31T02:26:37.912Z,9.30
2022-12-31T02:29:38.817Z,9.30
2022-12-31T02:32:37.456Z,9.30
2022-12-31T02:35:22.624Z,9.30
2022-12-31T02:37:53.690Z,9.30
2022-12-31T02:40:22.493Z,9.30
2022-12-31T02:42:55.018Z,9.30
2022-12-31T02:45:31.996Z,9.30
2022-12-31T02:48:06.973Z,9.30
2022-12-31T02:50:42.241Z,9.30
2022-12-31T02:53:24.052Z,9.10
2022-12-31T02:55:58.815Z,9.00
2022-12-31T02:58:52.116Z,8.90
2022-12-31T03:01:45.410Z,8.70
2022-12-31T03:04:32.808Z,8.60
2022-12-31T03:07:02.597Z,8.50
2022-12-31T03:09:29.647Z,8.50
2022-12-31T03:12:15.572Z,8.40
2022-12-31T03:14:42.700Z,8.30
2022-12-31T03:17:09.843Z,8.20
2022-12-31T03:19:55.348Z,8.30
2022-12-31T03:22:28.206Z,8.30
2022-12-31T03:25:23.602Z,8.50
2022-12-31T03:27:51.119Z,8.50
2022-12-31T03:30:20.113Z,8.60
2022-12-31T03:32:48.487Z,8.60
2022-12-31T03:35:19.387Z,8.70
2022-12-31T03:37:47.312Z,8.70
2022-12-31T03:40:15.530Z,8.70
2022-12-31T03:42:42.783Z,8.70
2022-12-31T03:45:10.935Z,8.70
2022-12-31T03:47:38.147Z,8.80
2022-12-31T03:50:06.364Z,8.80
2022-12-31T03:52:33.560Z,8.80
2022-12-31T03:55:02.308Z,8.80
2022-12-31T03:57:30.074Z,8.60
2022-12-31T03:59:57.074Z,8.70
2022-12-31T04:02:28.840Z,8.70
2022-12-31T04:04:56.617Z,8.60
2022-12-31T04:07:24.420Z,8.60
2022-12-31T04:09:51.476Z,8.60
2022-12-31T04:12:18.569Z,8.70
2022-12-31T04:14:45.627Z,8.60
2022-12-31T04:17:12.714Z,8.60
2022-12-31T04:19:39.804Z,8.60
2022-12-31T04:22:06.982Z,8.60
2022-12-31T04:24:33.948Z,8.60
2022-12-31T04:27:07.251Z,8.60
2022-12-31T04:29:34.867Z,8.70
2022-12-31T04:32:02.186Z,8.70
2022-12-31T04:34:29.229Z,8.70
2022-12-31T04:36:56.188Z,8.80
2022-12-31T04:39:23.751Z,8.70
2022-12-31T04:41:51.427Z,8.70
2022-12-31T04:44:18.957Z,8.80
2022-12-31T04:46:45.973Z,8.90
2022-12-31T04:49:13.142Z,8.90
2022-12-31T04:51:40.437Z,9.00
2022-12-31T04:54:07.572Z,9.10
2022-12-31T04:56:36.907Z,9.20
2022-12-31T04:59:07.509Z,9.30
2022-12-31T05:01:34.681Z,9.40
2022-12-31T05:04:01.914Z,9.40
2022-12-31T05:06:28.965Z,9.40
2022-12-31T05:08:56.098Z,9.40
2022-12-31T05:11:23.292Z,9.30
2022-12-31T05:13:50.342Z,9.40
2022-12-31T05:16:17.496Z,9.40
2022-12-31T05:18:44.505Z,9.30
2022-12-31T05:21:18.612Z,9.30
2022-12-31T05:23:45.515Z,9.20
2022-12-31T05:26:12.593Z,9.10
2022-12-31T05:28:39.781Z,9.10
2022-12-31T05:31:06.945Z,9.00
2022-12-31T05:33:34.019Z,9.00
2022-12-31T05:36:01.051Z,8.90
2022-12-31T05:38:28.116Z,9.00
2022-12-31T05:41:06.221Z,9.00
2022-12-31T05:43:34.128Z,9.00
2022-12-31T05:46:02.613Z,9.00
2022-12-31T05:48:30.649Z,9.00
2022-12-31T05:50:57.833Z,9.00
2022-12-31T05:53:24.919Z,9.00
2022-12-31T05:55:52.031Z,9.00
2022-12-31T05:58:19.012Z,8.90
2022-12-31T06:00:46.285Z,8.90
2022-12-31T06:03:13.718Z,8.90
2022-12-31T06:05:45.024Z,8.80
2022-12-31T06:08:13.087Z,8.80
2022-12-31T06:10:42.971Z,8.80
2022-12-31T06:13:10.340Z,8.80
2022-12-31T06:15:39.745Z,8.80
2022-12-31T06:18:06.988Z,8.80
2022-12-31T06:20:36.903Z,8.80
2022-12-31T06:23:04.390Z,8.70
2022-12-31T06:25:31.522Z,8.60
2022-12-31T06:27:58.496Z,8.60
2022-12-31T06:30:25.503Z,8.60
2022-12-31T06:32:52.458Z,8.50
2022-12-31T06:35:19.450Z,8.50
2022-12-31T06:37:46.615Z,8.50
2022-12-31T06:40:13.660Z,8.50
2022-12-31T06:42:42.287Z,8.50
2022-12-31T06:45:09.583Z,8.50
2022-12-31T06:47:36.591Z,8.50
2022-12-31T06:50:03.761Z,8.50
2022-12-31T06:52:30.792Z,8.50
2022-12-31T06:54:58.554Z,8.60
2022-12-31T06:57:25.853Z,8.60
2022-12-31T06:59:53.076Z,8.70
2022-12-31T07:02:57.578Z,8.80
2022-12-31T07:05:27.371Z,8.80
2022-12-31T07:08:21.972Z,8.90
2022-12-31T07:11:02.149Z,9.00
2022-12-31T07:13:44.088Z,9.10
2022-12-31T07:16:16.838Z,9.20
2022-12-31T07:18:55.133Z,9.20
2022-12-31T07:21:38.216Z,9.20
2022-12-31T07:24:10.279Z,9.20
2022-12-31T07:26:54.258Z,9.30
2022-12-31T07:29:26.465Z,9.30
2022-12-31T07:32:37.584Z,9.30
2022-12-31T07:35:35.490Z,9.30
2022-12-31T07:38:15.960Z,9.20
2022-12-31T07:41:07.428Z,9.20
2022-12-31T07:43:44.012Z,9.20
2022-12-31T07:46:33.631Z,9.20
2022-12-31T07:49:00.943Z,9.20
2022-12-31T07:51:28.450Z,9.20
2022-12-31T07:53:55.498Z,9.30
2022-12-31T07:56:22.436Z,9.30
2022-12-31T07:59:14.024Z,9.40
2022-12-31T08:01:55.203Z,9.40
2022-12-31T08:04:24.929Z,9.40
2022-12-31T08:07:04.094Z,9.40
2022-12-31T08:09:37.693Z,9.40
2022-12-31T08:12:04.870Z,9.50
2022-12-31T08:14:35.822Z,9.50
2022-12-31T08:17:03.106Z,9.50
2022-12-31T08:19:32.719Z,9.60
2022-12-31T08:22:24.156Z,9.60
2022-12-31T08:25:09.777Z,9.60
2022-12-31T08:27:50.850Z,9.60
2022-12-31T08:30:21.028Z,9.70
2022-12-31T08:33:11.520Z,9.80
2022-12-31T08:35:38.480Z,9.80
2022-12-31T08:38:28.464Z,9.80
2022-12-31T08:41:16.442Z,9.90
2022-12-31T08:44:06.416Z,9.90
2022-12-31T08:47:00.006Z,10.00
2022-12-31T08:49:28.481Z,10.10
2022-12-31T08:51:55.917Z,10.10
2022-12-31T08:54:23.134Z,10.20
2022-12-31T08:57:27.876Z,10.40
2022-12-31T09:00:16.369Z,10.70
2022-12-31T09:02:58.368Z,11.10
2022-12-31T09:06:03.380Z,11.20
2022-12-31T09:08:35.521Z,11.00
2022-12-31T09:11:22.789Z,10.90
2022-12-31T09:14:08.258Z,10.80
2022-12-31T09:17:11.586Z,10.70
2022-12-31T09:19:38.523Z,10.70
2022-12-31T09:22:05.597Z,10.80
2022-12-31T09:24:32.862Z,10.90
2022-12-31T09:27:12.047Z,11.00
2022-12-31T09:29:57.713Z,11.00
2022-12-31T09:32:37.322Z,11.00
2022-12-31T09:35:28.412Z,11.00
2022-12-31T09:38:04.185Z,10.90
2022-12-31T09:41:14.114Z,10.90
2022-12-31T09:44:02.265Z,11.00
2022-12-31T09:46:51.290Z,11.10
2022-12-31T09:49:23.979Z,11.10
2022-12-31T09:52:17.889Z,11.00
2022-12-31T09:54:55.701Z,11.00
2022-12-31T09:57:48.251Z,10.90
2022-12-31T10:00:28.963Z,10.90
2022-12-31T10:03:20.751Z,11.00
2022-12-31T10:05:50.725Z,10.90
2022-12-31T10:08:38.899Z,11.00
2022-12-31T10:11:07.089Z,11.00
2022-12-31T10:13:43.183Z,11.00
2022-12-31T10:16:34.724Z,11.10
2022-12-31T10:19:13.337Z,11.30
2022-12-31T10:22:11.123Z,11.70
2022-12-31T10:25:39.580Z,12.00
2022-12-31T10:28:15.095Z,12.30
2022-12-31T10:31:11.234Z,12.50
2022-12-31T10:33:51.513Z,12.30
2022-12-31T10:36:20.997Z,12.10
2022-12-31T10:39:24.010Z,12.20
2022-12-31T10:41:54.115Z,12.10
2022-12-31T10:44:35.857Z,12.20
2022-12-31T10:47:30.345Z,12.40
2022-12-31T10:50:25.623Z,12.50
2022-12-31T10:53:18.226Z,12.80
2022-12-31T10:56:22.491Z,13.00
2022-12-31T10:59:07.900Z,13.10
2022-12-31T11:01:53.133Z,13.30
2022-12-31T11:04:35.243Z,13.20
2022-12-31T11:07:11.161Z,13.20
2022-12-31T11:09:41.201Z,13.20
2022-12-31T11:12:22.994Z,13.00
2022-12-31T11:15:11.772Z,13.00
2022-12-31T11:17:51.934Z,13.20
2022-12-31T11:21:04.492Z,13.60
2022-12-31T11:24:12.549Z,13.70
2022-12-31T11:26:56.591Z,13.60
2022-12-31T11:29:48.464Z,14.00
2022-12-31T11:32:18.554Z,14.30
2022-12-31T11:34:48.234Z,14.30
2022-12-31T11:37:37.382Z,14.10
2022-12-31T11:40:36.808Z,14.30
2022-12-31T11:43:24.833Z,14.40
2022-12-31T11:46:21.587Z,14.30
2022-12-31T11:49:00.889Z,14.30
2022-12-31T11:52:01.599Z,14.30
2022-12-31T11:54:32.628Z,14.40
2022-12-31T11:57:30.112Z,14.30
2022-12-31T12:00:06.596Z,14.30
2022-12-31T12:02:37.581Z,14.30
2022-12-31T12:05:10.979Z,14.20
2022-12-31T12:07:38.671Z,13.90
2022-12-31T12:10:35.603Z,13.90
2022-12-31T12:13:13.776Z,13.60
2022-12-31T12:15:45.756Z,13.80
2022-12-31T12:18:40.934Z,14.00
2022-12-31T12:21:16.743Z,14.00
2022-12-31T12:24:05.275Z,14.20
2022-12-31T12:26:40.035Z,14.50
2022-12-31T12:29:30.160Z,14.50
2022-12-31T12:32:15.074Z,14.50
2022-12-31T12:34:49.150Z,14.30
2022-12-31T12:37:30.159Z,14.30
2022-12-31T12:40:03.529Z,14.00
2022-12-31T12:42:31.312Z,13.90
2022-12-31T12:45:14.228Z,13.80
2022-12-31T12:47:46.188Z,13.60
2022-12-31T12:50:42.251Z,13.60
2022-12-31T12:53:44.145Z,13.60
2022-12-31T12:56:20.043Z,13.60
2022-12-31T12:59:17.481Z,13.50
2022-12-31T13:02:25.858Z,13.50
2022-12-31T13:05:26.026Z,13.50
2022-12-31T13:08:06.820Z,13.40
2022-12-31T13:10:51.417Z,13.50
2022-12-31T13:13:27.157Z,13.40
2022-12-31T13:16:02.585Z,13.40
2022-12-31T13:18:49.778Z,13.30
2022-12-31T13:21:30.805Z,13.40
2022-12-31T13:24:24.242Z,13.30
2022-12-31T13:27:04.859Z,13.30
2022-12-31T13:29:34.619Z,13.20
2022-12-31T13:32:04.925Z,13.20
2022-12-31T13:34:37.332Z,13.20
2022-12-31T13:37:17.407Z,13.20
2022-12-31T13:39:47.196Z,13.20
2022-12-31T13:42:32.809Z,13.20
2022-12-31T13:45:04.304Z,13.20
2022-12-31T13:47:42.245Z,13.10
2022-12-31T13:50:38.356Z,13.10
2022-12-31T13:53:38.693Z,13.00
2022-12-31T13:56:22.075Z,12.90
2022-12-31T13:59:01.763Z,12.90
2022-12-31T14:01:58.299Z,12.90
2022-12-31T14:04:31.713Z,12.80
2022-12-31T14:07:14.936Z,12.80
2022-12-31T14:09:42.612Z,12.80
2022-12-31T14:12:24.409Z,12.70
2022-12-31T14:15:07.747Z,12.70
2022-12-31T14:17:47.825Z,12.60
2022-12-31T14:20:35.897Z,12.60
2022-12-31T14:23:34.087Z,12.60
2022-12-31T14:26:22.817Z,12.50
2022-12-31T14:29:12.435Z,12.50
2022-12-31T14:31:48.673Z,12.40
2022-12-31T14:34:33.711Z,12.40
2022-12-31T14:37:23.734Z,12.40
2022-12-31T14:40:11.961Z,12.40
2022-12-31T14:42:38.896Z,12.40
2022-12-31T14:45:34.475Z,12.30
2022-12-31T14:48:22.302Z,12.30
2022-12-31T14:50:49.911Z,12.20
2022-12-31T14:53:25.690Z,12.10
2022-12-31T14:56:05.455Z,12.10
2022-12-31T14:58:40.389Z,12.00
2022-12-31T15:01:22.422Z,12.00
2022-12-31T15:03:52.364Z,11.90
2022-12-31T15:06:48.303Z,11.90
2022-12-31T15:10:08.752Z,11.80
2022-12-31T15:13:01.942Z,11.70
2022-12-31T15:16:10.996Z,11.60
2022-12-31T15:19:05.024Z,11.70
2022-12-31T15:22:04.252Z,11.50
2022-12-31T15:24:31.348Z,11.50
2022-12-31T15:27:01.729Z,11.50
2022-12-31T15:29:43.453Z,11.50
2022-12-31T15:32:39.019Z,11.40
2022-12-31T15:35:21.328Z,11.40
2022-12-31T15:38:07.917Z,11.40
2022-12-31T15:40:52.383Z,11.20
2022-12-31T15:43:25.557Z,11.20
2022-12-31T15:45:55.303Z,11.10
2022-12-31T15:48:31.274Z,11.10
2022-12-31T15:51:01.205Z,11.00
2022-12-31T15:53:34.806Z,11.00
2022-12-31T15:56:02.678Z,11.10
2022-12-31T15:58:38.258Z,11.20
2022-12-31T16:01:15.918Z,11.20
2022-12-31T16:03:46.044Z,11.20
2022-12-31T16:06:15.295Z,11.10
2022-12-31T16:08:47.847Z,11.00
2022-12-31T16:11:15.915Z,11.00
2022-12-31T16:13:46.300Z,11.00
2022-12-31T16:16:25.255Z,10.90
2022-12-31T16:18:53.306Z,10.80
2022-12-31T16:21:26.295Z,10.80
2022-12-31T16:23:55.793Z,10.70
2022-12-31T16:26:27.964Z,10.60
2022-12-31T16:29:00.258Z,10.40
2022-12-31T16:31:29.310Z,10.40
2022-12-31T16:34:13.873Z,10.30
2022-12-31T16:36:41.204Z,10.30
2022-12-31T16:39:35.559Z,10.30
2022-12-31T16:42:14.825Z,10.30
2022-12-31T16:44:42.077Z,10.40
2022-12-31T16:47:15.435Z,10.40
2022-12-31T16:49:43.213Z,10.40
2022-12-31T16:52:25.989Z,10.30
2022-12-31T16:54:54.647Z,10.20
2022-12-31T16:57:25.119Z,10.20
2022-12-31T17:00:04.793Z,10.10
2022-12-31T17:02:45.763Z,10.10
2022-12-31T17:05:24.274Z,10.30
2022-12-31T17:07:51.364Z,10.40
2022-12-31T17:10:36.308Z,10.40
2022-12-31T17:13:28.888Z,10.40
2022-12-31T17:15:58.549Z,10.30
2022-12-31T17:18:37.390Z,10.20
2022-12-31T17:21:08.865Z,10.10
2022-12-31T17:23:38.490Z,10.00
2022-12-31T17:26:11.866Z,10.10
2022-12-31T17:28:46.642Z,10.10
2022-12-31T17:31:40.402Z,10.10
2022-12-31T17:34:21.342Z,10.00
2022-12-31T17:36:54.661Z,9.90
2022-12-31T17:39:23.989Z,9.80
2022-12-31T17:41:55.621Z,9.80
2022-12-31T17:44:26.861Z,9.70
2022-12-31T17:46:54.262Z,9.60
2022-12-31T17:49:29.831Z,9.50
2022-12-31T17:51:57.155Z,9.50
2022-12-31T17:54:24.153Z,9.50
2022-12-31T17:56:52.696Z,9.50
2022-12-31T17:59:25.276Z,9.40
2022-12-31T18:01:52.563Z,9.40
2022-12-31T18:04:21.509Z,9.40
2022-12-31T18:06:48.428Z,9.40
2022-12-31T18:09:16.512Z,9.40
2022-12-31T18:11:43.713Z,9.50
2022-12-31T18:14:14.754Z,9.60
2022-12-31T18:16:42.136Z,9.60
2022-12-31T18:19:45.658Z,9.70
2022-12-31T18:22:03.142Z,9.70
2022-12-31T18:24:30.147Z,9.70
2022-12-31T18:26:57.130Z,9.70
2022-12-31T18:29:24.201Z,9.70
2022-12-31T18:31:51.412Z,9.70
2022-12-31T18:34:19.154Z,9.70
2022-12-31T18:36:46.682Z,9.70
2022-12-31T18:39:13.655Z,9.70
2022-12-31T18:41:45.856Z,9.70
2022-12-31T18:44:15.247Z,9.70
2022-12-31T18:46:43.176Z,9.70
2022-12-31T18:49:10.163Z,9.60
2022-12-31T18:51:37.224Z,9.60
2022-12-31T18:54:05.072Z,9.50
2022-12-31T18:56:32.176Z,9.40
2022-12-31T18:58:59.949Z,9.30
2022-12-31T19:01:35.377Z,9.30
2022-12-31T19:04:13.459Z,9.30
2022-12-31T19:06:40.822Z,9.20
2022-12-31T19:09:23.699Z,9.10
2022-12-31T19:11:54.898Z,9.10
2022-12-31T19:14:26.778Z,9.10
2022-12-31T19:16:54.719Z,9.00
2022-12-31T19:19:21.688Z,9.00
2022-12-31T19:21:48.680Z,9.00
2022-12-31T19:24:20.715Z,9.10
2022-12-31T19:26:48.392Z,9.10
2022-12-31T19:29:21.588Z,9.20
2022-12-31T19:31:49.124Z,9.20
2022-12-31T19:34:16.736Z,9.30
2022-12-31T19:36:44.384Z,9.30
2022-12-31T19:39:21.371Z,9.30
2022-12-31T19:41:54.643Z,9.30
2022-12-31T19:44:25.955Z,9.30
2022-12-31T19:46:52.916Z,9.30
2022-12-31T19:49:19.933Z,9.30
2022-12-31T19:51:46.887Z,9.30
2022-12-31T19:54:13.944Z,9.40
2022-12-31T19:56:40.936Z,9.30
2022-12-31T19:59:09.745Z,9.20
2022-12-31T20:01:37.102Z,9.20
2022-12-31T20:04:04.457Z,9.20
2022-12-31T20:06:31.636Z,9.10
2022-12-31T20:08:58.647Z,9.10
2022-12-31T20:11:26.015Z,9.20
2022-12-31T20:13:54.105Z,9.10
2022-12-31T20:16:24.161Z,9.10
2022-12-31T20:18:51.628Z,9.00
2022-12-31T20:21:21.890Z,9.00
2022-12-31T20:23:50.494Z,8.90
2022-12-31T20:26:18.548Z,8.90
2022-12-31T20:28:45.591Z,8.90
2022-12-31T20:31:15.665Z,8.90
2022-12-31T20:33:43.231Z,8.80
2022-12-31T20:36:13.562Z,8.80
2022-12-31T20:38:41.159Z,8.80
2022-12-31T20:41:11.461Z,8.70
2022-12-31T20:43:39.661Z,8.70
2022-12-31T20:46:16.242Z,8.60
2022-12-31T20:48:44.628Z,8.50
2022-12-31T20:51:13.012Z,8.50
2022-12-31T20:53:40.105Z,8.50
2022-12-31T20:56:08.414Z,8.50
2022-12-31T20:58:35.897Z,8.50
2022-12-31T21:01:06.599Z,8.50
2022-12-31T21:04:05.023Z,8.50
2022-12-31T21:06:26.390Z,8.60
2022-12-31T21:08:55.157Z,8.70
2022-12-31T21:11:41.075Z,8.70
2022-12-31T21:14:08.415Z,8.80
2022-12-31T21:16:35.533Z,8.80
2022-12-31T21:19:02.900Z,8.80
2022-12-31T21:21:29.908Z,8.80
2022-12-31T21:23:57.042Z,8.70
2022-12-31T21:26:24.043Z,8.60
2022-12-31T21:28:51.031Z,8.50
2022-12-31T21:31:18.141Z,8.30
2022-12-31T21:33:47.116Z,8.30
2022-12-31T21:36:14.877Z,8.30
2022-12-31T21:38:42.241Z,8.30
2022-12-31T21:41:33.552Z,8.30
2022-12-31T21:44:01.614Z,8.30
2022-12-31T21:46:29.280Z,8.40
2022-12-31T21:48:58.592Z,8.30
2022-12-31T21:51:25.966Z,8.30
2022-12-31T21:53:53.132Z,8.30
2022-12-31T21:56:21.386Z,8.30
2022-12-31T21:59:12.541Z,8.30
2022-12-31T22:01:58.856Z,8.40
2022-12-31T22:05:00.198Z,8.60
2022-12-31T22:07:12.789Z,8.80
2022-12-31T22:09:39.922Z,8.90
2022-12-31T22:12:07.100Z,9.00
2022-12-31T22:14:34.080Z,9.10
2022-12-31T22:17:01.053Z,9.10
2022-12-31T22:19:27.978Z,9.30
2022-12-31T22:21:54.983Z,9.40
2022-12-31T22:24:21.971Z,9.50
2022-12-31T22:26:48.887Z,9.60
2022-12-31T22:29:15.806Z,9.60
2022-12-31T22:31:42.901Z,9.70
2022-12-31T22:34:09.987Z,9.80
2022-12-31T22:36:36.964Z,9.80
2022-12-31T22:39:04.128Z,9.80
2022-12-31T22:41:31.195Z,9.90
2022-12-31T22:44:04.190Z,10.00
2022-12-31T22:46:32.396Z,10.10
2022-12-31T22:49:00.741Z,10.20
2022-12-31T22:51:57.397Z,10.20
2022-12-31T22:54:15.743Z,10.20
2022-12-31T22:56:42.777Z,10.20
2022-12-31T22:59:09.911Z,10.10
2022-12-31T23:01:37.400Z,10.10
2022-12-31T23:04:04.821Z,10.00
2022-12-31T23:06:32.197Z,9.90
2022-12-31T23:09:34.849Z,9.90
2022-12-31T23:12:02.979Z,9.80
2022-12-31T23:14:48.480Z,9.70
2022-12-31T23:17:40.310Z,9.70
2022-12-31T23:20:30.491Z,9.50
2022-12-31T23:23:12.920Z,9.20
2022-12-31T23:25:49.288Z,9.00
2022-12-31T23:28:21.613Z,8.70
2022-12-31T23:30:48.896Z,8.60
2022-12-31T23:33:19.081Z,8.50
2022-12-31T23:35:46.407Z,8.40
2022-12-31T23:38:14.083Z,8.40
2022-12-31T23:40:41.087Z,8.50
2022-12-31T23:43:08.820Z,8.50
2022-12-31T23:45:36.459Z,8.70
2022-12-31T23:48:03.655Z,8.90
2022-12-31T23:50:30.665Z,9.20
2022-12-31T23:52:57.644Z,9.40
2022-12-31T23:55:24.681Z,9.70
2022-12-31T23:57:51.641Z,9.90
